createdAt,value
2023-02-25T00:00:10.796Z,3.46
2023-02-25T00:02:58.224Z,3.44
2023-02-25T00:05:44.292Z,3.46
2023-02-25T00:08:31.854Z,3.43
2023-02-25T00:11:18.325Z,3.44
2023-02-25T00:14:04.857Z,3.45
2023-02-25T00:16:51.119Z,3.47
2023-02-25T00:19:37.138Z,3.46
2023-02-25T00:22:22.903Z,3.44
2023-02-25T00:25:10.551Z,3.44
2023-02-25T00:27:56.217Z,3.45
2023-02-25T00:30:43.515Z,3.46
2023-02-25T00:33:30.892Z,3.47
2023-02-25T00:36:20.188Z,3.51
2023-02-25T00:39:06.953Z,3.45
2023-02-25T00:42:05.068Z,3.48
2023-02-25T00:45:04.215Z,3.46
2023-02-25T00:47:50.530Z,3.46
2023-02-25T00:50:59.958Z,3.45
2023-02-25T00:53:56.358Z,3.45
2023-02-25T00:56:42.544Z,3.47
2023-02-25T00:59:29.542Z,3.39
2023-02-25T01:02:15.284Z,3.41
2023-02-25T01:05:01.365Z,3.41
2023-02-25T01:07:48.744Z,3.42
2023-02-25T01:10:34.562Z,3.38
2023-02-25T01:13:20.316Z,3.40
2023-02-25T01:16:12.184Z,3.40
2023-02-25T01:19:00.277Z,3.44
2023-02-25T01:21:48.000Z,3.45
2023-02-25T01:24:34.470Z,3.42
2023-02-25T01:27:20.487Z,3.43
2023-02-25T01:30:07.292Z,3.45
2023-02-25T01:32:55.026Z,3.41
2023-02-25T01:35:41.280Z,3.42
2023-02-25T01:38:27.678Z,3.38
2023-02-25T01:41:13.702Z,3.37
2023-02-25T01:44:06.992Z,3.39
2023-02-25T01:46:53.277Z,3.38
2023-02-25T01:49:41.673Z,3.31
2023-02-25T01:52:27.689Z,3.33
2023-02-25T01:55:13.394Z,3.30
2023-02-25T01:57:59.459Z,3.33
2023-02-25T02:00:45.648Z,3.29
2023-02-25T02:03:31.691Z,3.30
2023-02-25T02:06:21.612Z,3.32
2023-02-25T02:09:08.414Z,3.23
2023-02-25T02:11:54.248Z,3.24
2023-02-25T02:14:40.924Z,3.26
2023-02-25T02:17:30.214Z,3.27
2023-02-25T02:20:20.363Z,3.27
2023-02-25T02:23:17.631Z,3.24
2023-02-25T02:26:13.875Z,3.24
2023-02-25T02:29:12.487Z,3.25
2023-02-25T02:32:02.129Z,3.23
2023-02-25T02:34:49.702Z,3.25
2023-02-25T02:37:38.059Z,3.22
2023-02-25T02:40:27.593Z,3.21
2023-02-25T02:43:19.607Z,3.27
2023-02-25T02:46:06.476Z,3.28
2023-02-25T02:48:54.360Z,3.25
2023-02-25T02:51:40.773Z,3.24
2023-02-25T02:54:26.561Z,3.25
2023-02-25T02:57:13.156Z,3.27
2023-02-25T03:00:01.518Z,3.26
2023-02-25T03:02:47.902Z,3.20
2023-02-25T03:05:35.345Z,3.16
2023-02-25T03:08:21.731Z,3.20
2023-02-25T03:11:08.168Z,3.16
2023-02-25T03:13:53.878Z,3.20
2023-02-25T03:16:41.412Z,3.19
2023-02-25T03:19:28.160Z,3.20
2023-02-25T03:22:16.796Z,3.18
2023-02-25T03:25:05.998Z,3.19
2023-02-25T03:27:53.359Z,3.19
2023-02-25T03:30:44.183Z,3.15
2023-02-25T03:33:32.598Z,3.10
2023-02-25T03:36:20.215Z,3.16
2023-02-25T03:39:09.780Z,3.20
2023-02-25T03:41:58.493Z,3.21
2023-02-25T03:44:45.468Z,3.16
2023-02-25T03:47:31.374Z,3.15
2023-02-25T03:50:19.420Z,3.17
2023-02-25T03:53:07.844Z,3.10
2023-02-25T03:56:11.498Z,3.08
2023-02-25T03:59:00.358Z,3.11
2023-02-25T04:01:46.949Z,3.07
2023-02-25T04:04:33.118Z,3.09
2023-02-25T04:07:19.403Z,3.08
2023-02-25T04:10:05.262Z,3.08
2023-02-25T04:12:52.559Z,3.08
2023-02-25T04:15:39.115Z,3.05
2023-02-25T04:18:27.659Z,3.02
2023-02-25T04:21:22.667Z,3.06
2023-02-25T04:24:08.897Z,3.01
2023-02-25T04:26:58.290Z,3.03
2023-02-25T04:29:45.578Z,3.00
2023-02-25T04:32:31.355Z,2.98
2023-02-25T04:35:17.683Z,3.03
2023-02-25T04:38:03.543Z,3.01
2023-02-25T04:40:50.272Z,3.01
2023-02-25T04:43:36.044Z,2.98
2023-02-25T04:46:23.421Z,2.92
2023-02-25T04:49:09.569Z,2.92
2023-02-25T04:51:55.620Z,2.93
2023-02-25T04:54:41.439Z,2.92
2023-02-25T04:57:27.316Z,2.93
2023-02-25T05:00:19.012Z,2.93
2023-02-25T05:03:06.255Z,2.89
2023-02-25T05:05:51.978Z,2.89
2023-02-25T05:08:37.871Z,2.84
2023-02-25T05:11:23.603Z,2.84
2023-02-25T05:14:09.584Z,2.81
2023-02-25T05:16:56.484Z,2.81
2023-02-25T05:19:43.961Z,2.76
2023-02-25T05:22:29.641Z,2.80
2023-02-25T05:25:15.778Z,2.72
2023-02-25T05:28:01.758Z,2.69
2023-02-25T05:30:47.812Z,2.65
2023-02-25T05:33:34.796Z,2.60
2023-02-25T05:36:24.077Z,2.63
2023-02-25T05:39:12.995Z,2.63
2023-02-25T05:41:59.007Z,2.63
2023-02-25T05:44:44.754Z,2.61
2023-02-25T05:47:30.589Z,2.63
2023-02-25T05:50:16.354Z,2.56
2023-02-25T05:53:03.482Z,2.57
2023-02-25T05:55:49.370Z,2.59
2023-02-25T05:58:35.674Z,2.60
2023-02-25T06:01:22.657Z,2.61
2023-02-25T06:04:08.560Z,2.62
2023-02-25T06:06:54.348Z,2.64
2023-02-25T06:09:41.428Z,2.59
2023-02-25T06:12:27.638Z,2.64
2023-02-25T06:15:14.453Z,2.59
2023-02-25T06:18:00.508Z,2.58
2023-02-25T06:20:46.805Z,2.52
2023-02-25T06:23:32.875Z,2.55
2023-02-25T06:26:20.057Z,2.45
2023-02-25T06:29:06.169Z,2.50
2023-02-25T06:31:52.117Z,2.53
2023-02-25T06:34:38.435Z,2.48
2023-02-25T06:37:24.371Z,2.38
2023-02-25T06:40:12.316Z,2.49
2023-02-25T06:42:59.347Z,2.49
2023-02-25T06:45:45.092Z,2.46
2023-02-25T06:48:30.843Z,2.46
2023-02-25T06:51:16.682Z,2.40
2023-02-25T06:54:02.940Z,2.42
2023-02-25T06:56:48.896Z,2.43
2023-02-25T06:59:36.440Z,2.40
2023-02-25T07:02:22.466Z,2.28
2023-02-25T07:05:08.489Z,2.29
2023-02-25T07:07:54.557Z,2.29
2023-02-25T07:10:41.639Z,2.24
2023-02-25T07:13:27.392Z,2.21
2023-02-25T07:16:15.080Z,2.17
2023-02-25T07:19:02.025Z,2.18
2023-02-25T07:21:49.685Z,2.18
2023-02-25T07:24:35.588Z,2.16
2023-02-25T07:27:21.365Z,2.11
2023-02-25T07:30:08.204Z,2.13
2023-02-25T07:32:55.276Z,2.17
2023-02-25T07:35:41.123Z,2.13
2023-02-25T07:38:26.766Z,2.20
2023-02-25T07:41:13.517Z,2.29
2023-02-25T07:43:59.706Z,2.33
2023-02-25T07:46:45.427Z,2.39
2023-02-25T07:49:32.613Z,2.43
2023-02-25T07:52:19.219Z,2.50
2023-02-25T07:55:05.169Z,2.52
2023-02-25T07:57:51.031Z,2.48
2023-02-25T08:00:38.448Z,2.54
2023-02-25T08:03:24.064Z,2.54
2023-02-25T08:06:11.222Z,2.46
2023-02-25T08:08:57.120Z,2.53
2023-02-25T08:11:43.985Z,2.51
2023-02-25T08:14:29.793Z,2.52
2023-02-25T08:17:15.920Z,2.53
2023-02-25T08:20:01.995Z,2.54
2023-02-25T08:22:49.145Z,2.57
2023-02-25T08:25:34.882Z,2.61
2023-02-25T08:28:20.601Z,2.69
2023-02-25T08:31:07.778Z,2.78
2023-02-25T08:33:54.885Z,2.83
2023-02-25T08:36:40.729Z,2.92
2023-02-25T08:39:29.171Z,3.02
2023-02-25T08:42:18.783Z,3.11
2023-02-25T08:45:04.549Z,3.20
2023-02-25T08:47:50.619Z,3.28
2023-02-25T08:50:36.576Z,3.39
2023-02-25T08:53:22.403Z,3.44
2023-02-25T08:56:10.356Z,3.47
2023-02-25T08:58:56.345Z,3.50
2023-02-25T09:01:45.569Z,3.55
2023-02-25T09:04:31.844Z,3.61
2023-02-25T09:07:17.893Z,3.72
2023-02-25T09:10:06.353Z,3.79
2023-02-25T09:12:54.572Z,3.86
2023-02-25T09:15:40.465Z,3.96
2023-02-25T09:18:26.246Z,3.99
2023-02-25T09:21:12.641Z,4.01
2023-02-25T09:23:59.285Z,4.11
2023-02-25T09:26:45.378Z,4.24
2023-02-25T09:29:32.841Z,4.31
2023-02-25T09:32:20.882Z,4.38
2023-02-25T09:35:07.446Z,4.48
2023-02-25T09:37:53.496Z,4.69
2023-02-25T09:40:39.355Z,4.81
2023-02-25T09:43:26.104Z,4.74
2023-02-25T09:46:13.560Z,4.66
2023-02-25T09:49:00.487Z,4.64
2023-02-25T09:51:47.927Z,4.40
2023-02-25T09:54:35.207Z,4.10
2023-02-25T09:57:22.484Z,4.11
2023-02-25T10:00:12.761Z,4.02
2023-02-25T10:03:00.894Z,3.93
2023-02-25T10:05:48.292Z,4.03
2023-02-25T10:08:35.392Z,4.04
2023-02-25T10:11:24.407Z,4.06
2023-02-25T10:14:15.429Z,4.20
2023-02-25T10:17:05.532Z,4.16
2023-02-25T10:19:57.752Z,4.28
2023-02-25T10:22:45.087Z,4.34
2023-02-25T10:25:32.384Z,4.33
2023-02-25T10:28:20.207Z,4.36
2023-02-25T10:31:06.791Z,4.29
2023-02-25T10:33:53.673Z,4.21
2023-02-25T10:36:42.429Z,3.97
2023-02-25T10:39:28.720Z,3.75
2023-02-25T10:42:14.826Z,3.72
2023-02-25T10:45:01.438Z,3.64
2023-02-25T10:47:48.479Z,3.58
2023-02-25T10:50:44.953Z,3.48
2023-02-25T10:53:33.832Z,3.38
2023-02-25T10:56:19.584Z,3.28
2023-02-25T10:59:06.621Z,3.12
2023-02-25T11:01:52.614Z,3.09
2023-02-25T11:04:39.320Z,3.08
2023-02-25T11:07:26.293Z,2.99
2023-02-25T11:10:16.790Z,2.95
2023-02-25T11:13:05.937Z,2.95
2023-02-25T11:15:51.849Z,2.89
2023-02-25T11:18:39.323Z,2.95
2023-02-25T11:21:29.038Z,2.92
2023-02-25T11:24:15.870Z,2.98
2023-02-25T11:27:03.764Z,3.06
2023-02-25T11:29:50.443Z,3.10
2023-02-25T11:32:36.325Z,3.14
2023-02-25T11:35:25.196Z,3.48
2023-02-25T11:38:15.074Z,3.95
2023-02-25T11:41:01.095Z,4.19
2023-02-25T11:43:48.682Z,4.40
2023-02-25T11:46:34.671Z,4.59
2023-02-25T11:49:21.731Z,4.70
2023-02-25T11:52:09.358Z,4.77
2023-02-25T11:54:58.682Z,4.78
2023-02-25T11:57:46.641Z,4.81
2023-02-25T12:00:36.414Z,4.79
2023-02-25T12:03:29.958Z,4.81
2023-02-25T12:06:18.793Z,4.83
2023-02-25T12:09:13.684Z,4.68
2023-02-25T12:12:29.957Z,4.76
2023-02-25T12:15:36.728Z,4.92
2023-02-25T12:18:38.729Z,5.02
2023-02-25T12:21:39.698Z,4.90
2023-02-25T12:24:40.863Z,4.78
2023-02-25T12:27:48.079Z,4.73
2023-02-25T12:30:39.046Z,4.56
2023-02-25T12:33:26.724Z,4.43
2023-02-25T12:36:17.600Z,4.46
2023-02-25T12:39:13.958Z,4.47
2023-02-25T12:42:01.818Z,4.50
2023-02-25T12:45:00.985Z,4.47
2023-02-25T12:47:50.420Z,4.57
2023-02-25T12:50:39.887Z,4.51
2023-02-25T12:53:29.569Z,4.58
2023-02-25T12:56:30.526Z,4.60
2023-02-25T12:59:31.116Z,4.64
2023-02-25T13:02:19.228Z,4.82
2023-02-25T13:05:19.995Z,4.76
2023-02-25T13:08:27.205Z,4.92
2023-02-25T13:11:17.486Z,4.75
2023-02-25T13:14:22.140Z,4.88
2023-02-25T13:17:17.398Z,4.75
2023-02-25T13:20:22.251Z,4.82
2023-02-25T13:23:13.162Z,4.73
2023-02-25T13:26:07.728Z,4.73
2023-02-25T13:28:58.717Z,4.66
2023-02-25T13:31:46.319Z,4.53
2023-02-25T13:34:35.569Z,4.66
2023-02-25T13:37:28.547Z,4.84
2023-02-25T13:40:35.465Z,4.99
2023-02-25T13:43:39.502Z,5.41
2023-02-25T13:46:40.417Z,5.35
2023-02-25T13:49:32.364Z,5.35
2023-02-25T13:52:20.672Z,5.46
2023-02-25T13:55:21.612Z,5.10
2023-02-25T13:58:13.758Z,5.23
2023-02-25T14:01:01.144Z,5.13
2023-02-25T14:04:05.672Z,5.17
2023-02-25T14:07:02.913Z,5.03
2023-02-25T14:09:50.394Z,5.08
2023-02-25T14:12:43.772Z,4.83
2023-02-25T14:15:33.634Z,4.97
2023-02-25T14:18:29.368Z,4.80
2023-02-25T14:21:23.712Z,4.67
2023-02-25T14:24:12.632Z,4.57
2023-02-25T14:27:00.911Z,4.57
2023-02-25T14:29:50.723Z,4.45
2023-02-25T14:32:40.128Z,4.45
2023-02-25T14:35:33.862Z,4.36
2023-02-25T14:38:22.553Z,4.40
2023-02-25T14:41:13.909Z,4.30
2023-02-25T14:44:00.756Z,4.24
2023-02-25T14:46:49.172Z,4.15
2023-02-25T14:49:36.254Z,4.15
2023-02-25T14:52:37.097Z,4.10
2023-02-25T14:55:34.923Z,4.16
2023-02-25T14:58:35.530Z,4.13
2023-02-25T15:01:40.057Z,4.11
2023-02-25T15:04:50.064Z,4.11
2023-02-25T15:07:42.493Z,3.88
2023-02-25T15:10:31.287Z,3.87
2023-02-25T15:13:20.090Z,3.94
2023-02-25T15:16:17.938Z,3.86
2023-02-25T15:19:20.539Z,3.88
2023-02-25T15:22:17.571Z,3.88
2023-02-25T15:25:23.485Z,3.79
2023-02-25T15:28:27.201Z,3.62
2023-02-25T15:31:34.630Z,3.61
2023-02-25T15:34:36.035Z,3.63
2023-02-25T15:37:34.970Z,3.61
2023-02-25T15:40:42.002Z,3.56
2023-02-25T15:43:44.458Z,3.56
2023-02-25T15:46:43.646Z,3.51
2023-02-25T15:49:31.493Z,3.58
2023-02-25T15:52:32.492Z,3.51
2023-02-25T15:55:22.456Z,3.46
2023-02-25T15:58:26.454Z,3.43
2023-02-25T16:01:27.751Z,3.34
2023-02-25T16:04:28.555Z,3.28
2023-02-25T16:07:15.757Z,3.20
2023-02-25T16:10:04.663Z,3.12
2023-02-25T16:12:52.354Z,3.09
2023-02-25T16:15:39.852Z,3.00
2023-02-25T16:18:26.461Z,2.98
2023-02-25T16:21:13.905Z,2.98
2023-02-25T16:24:00.486Z,2.92
2023-02-25T16:26:48.613Z,2.90
2023-02-25T16:29:39.161Z,2.92
2023-02-25T16:32:30.421Z,2.85
2023-02-25T16:35:16.993Z,2.85
2023-02-25T16:38:04.060Z,2.82
2023-02-25T16:40:50.047Z,2.77
2023-02-25T16:43:37.487Z,2.75
2023-02-25T16:46:24.856Z,2.73
2023-02-25T16:49:11.084Z,2.67
2023-02-25T16:51:57.007Z,2.70
2023-02-25T16:54:42.818Z,2.69
2023-02-25T16:57:28.633Z,2.70
2023-02-25T17:00:16.742Z,2.67
2023-02-25T17:03:06.888Z,2.65
2023-02-25T17:05:59.853Z,2.61
2023-02-25T17:08:45.924Z,2.51
2023-02-25T17:11:32.288Z,2.50
2023-02-25T17:14:18.340Z,2.47
2023-02-25T17:17:03.986Z,2.34
2023-02-25T17:19:51.867Z,2.33
2023-02-25T17:22:38.056Z,2.21
2023-02-25T17:25:24.651Z,2.03
2023-02-25T17:28:17.945Z,2.06
2023-02-25T17:31:05.297Z,2.01
2023-02-25T17:33:52.741Z,1.91
2023-02-25T17:36:40.175Z,1.86
2023-02-25T17:39:26.242Z,1.75
2023-02-25T17:42:27.122Z,1.70
2023-02-25T17:45:37.490Z,1.64
2023-02-25T17:48:24.124Z,1.59
2023-02-25T17:51:10.200Z,1.47
2023-02-25T17:53:58.002Z,1.38
2023-02-25T17:56:43.679Z,1.30
2023-02-25T17:59:36.507Z,1.23
2023-02-25T18:02:27.838Z,1.20
2023-02-25T18:05:24.236Z,1.21
2023-02-25T18:08:17.360Z,1.11
2023-02-25T18:11:06.508Z,1.11
2023-02-25T18:13:52.310Z,1.05
2023-02-25T18:16:42.129Z,1.00
2023-02-25T18:19:28.880Z,0.89
2023-02-25T18:22:24.846Z,0.88
2023-02-25T18:25:25.485Z,0.83
2023-02-25T18:28:14.602Z,0.76
2023-02-25T18:31:00.581Z,0.70
2023-02-25T18:33:47.164Z,0.64
2023-02-25T18:36:32.895Z,0.57
2023-02-25T18:39:18.589Z,0.46
2023-02-25T18:42:05.151Z,0.41
2023-02-25T18:44:52.630Z,0.34
2023-02-25T18:47:38.649Z,0.27
2023-02-25T18:50:24.611Z,0.25
2023-02-25T18:53:11.179Z,0.22
2023-02-25T18:55:57.893Z,0.15
2023-02-25T18:58:44.377Z,0.11
2023-02-25T19:01:32.200Z,0.03
2023-02-25T19:04:19.683Z,-0.04
2023-02-25T19:07:06.648Z,-0.09
2023-02-25T19:09:52.997Z,-0.16
2023-02-25T19:12:38.815Z,-0.21
2023-02-25T19:15:24.558Z,-0.27
2023-02-25T19:18:12.547Z,-0.30
2023-02-25T19:20:58.663Z,-0.37
2023-02-25T19:23:44.493Z,-0.44
2023-02-25T19:26:30.538Z,-0.48
2023-02-25T19:29:16.326Z,-0.53
2023-02-25T19:32:02.308Z,-0.59
2023-02-25T19:34:49.754Z,-0.63
2023-02-25T19:37:36.410Z,-0.67
2023-02-25T19:40:22.405Z,-0.70
2023-02-25T19:43:08.110Z,-0.72
2023-02-25T19:45:54.399Z,-0.72
2023-02-25T19:48:40.536Z,-0.73
2023-02-25T19:51:27.872Z,-0.79
2023-02-25T19:54:13.703Z,-0.77
2023-02-25T19:56:59.560Z,-0.79
2023-02-25T19:59:45.308Z,-0.85
2023-02-25T20:02:31.515Z,-0.89
2023-02-25T20:05:17.677Z,-0.92
2023-02-25T20:08:05.074Z,-0.93
2023-02-25T20:10:50.919Z,-0.95
2023-02-25T20:13:38.182Z,-0.99
2023-02-25T20:16:25.491Z,-1.03
2023-02-25T20:19:11.683Z,-1.01
2023-02-25T20:21:57.473Z,-0.99
2023-02-25T20:24:45.437Z,-1.01
2023-02-25T20:27:31.578Z,-1.00
2023-02-25T20:30:17.677Z,-0.99
2023-02-25T20:33:04.618Z,-0.99
2023-02-25T20:35:50.935Z,-1.01
2023-02-25T20:38:37.214Z,-1.03
2023-02-25T20:41:24.768Z,-1.04
2023-02-25T20:44:11.292Z,-1.03
2023-02-25T20:46:57.273Z,-1.06
2023-02-25T20:49:43.210Z,-1.06
2023-02-25T20:52:29.020Z,-1.07
2023-02-25T20:55:15.243Z,-1.08
2023-02-25T20:58:02.408Z,-1.06
2023-02-25T21:00:48.318Z,-1.08
2023-02-25T21:03:34.147Z,-1.05
2023-02-25T21:06:21.300Z,-1.07
2023-02-25T21:09:07.642Z,-1.08
2023-02-25T21:11:53.419Z,-1.10
2023-02-25T21:14:40.581Z,-1.09
2023-02-25T21:17:26.176Z,-1.13
2023-02-25T21:20:12.318Z,-1.14
2023-02-25T21:22:58.432Z,-1.12
2023-02-25T21:25:44.233Z,-1.15
2023-02-25T21:28:30.081Z,-1.17
2023-02-25T21:31:17.414Z,-1.15
2023-02-25T21:34:03.660Z,-1.23
2023-02-25T21:36:49.542Z,-1.20
2023-02-25T21:39:35.347Z,-1.24
2023-02-25T21:42:21.622Z,-1.27
2023-02-25T21:45:09.366Z,-1.27
2023-02-25T21:47:56.509Z,-1.30
2023-02-25T21:50:45.173Z,-1.32
2023-02-25T21:53:31.498Z,-1.36
2023-02-25T21:56:18.183Z,-1.42
2023-02-25T21:59:05.286Z,-1.47
2023-02-25T22:01:51.513Z,-1.44
2023-02-25T22:04:38.729Z,-1.47
2023-02-25T22:07:24.433Z,-1.48
2023-02-25T22:10:11.090Z,-1.51
2023-02-25T22:12:57.174Z,-1.52
2023-02-25T22:15:47.372Z,-1.56
2023-02-25T22:18:35.006Z,-1.58
2023-02-25T22:21:23.465Z,-1.64
2023-02-25T22:24:09.348Z,-1.66
2023-02-25T22:26:55.054Z,-1.67
2023-02-25T22:29:41.284Z,-1.71
2023-02-25T22:32:27.177Z,-1.73
2023-02-25T22:35:12.920Z,-1.73
2023-02-25T22:38:00.552Z,-1.84
2023-02-25T22:40:46.278Z,-1.81
2023-02-25T22:43:31.997Z,-1.82
2023-02-25T22:46:18.485Z,-1.80
2023-02-25T22:49:04.462Z,-1.85
2023-02-25T22:51:51.059Z,-1.92
2023-02-25T22:54:38.866Z,-1.90
2023-02-25T22:57:24.865Z,-1.94
2023-02-25T23:00:16.663Z,-1.91
2023-02-25T23:03:02.531Z,-1.93
2023-02-25T23:05:48.325Z,-1.94
2023-02-25T23:08:34.195Z,-1.97
2023-02-25T23:11:22.083Z,-1.97
2023-02-25T23:14:08.217Z,-1.96
2023-02-25T23:16:54.170Z,-2.00
2023-02-25T23:19:40.118Z,-1.99
2023-02-25T23:22:28.076Z,-2.04
2023-02-25T23:25:13.935Z,-2.08
2023-02-25T23:28:00.968Z,-2.09
2023-02-25T23:30:46.813Z,-2.10
2023-02-25T23:33:33.174Z,-2.09
2023-02-25T23:36:19.208Z,-2.09
2023-02-25T23:39:05.888Z,-2.13
2023-02-25T23:41:51.740Z,-2.13
2023-02-25T23:44:38.842Z,-2.17
2023-02-25T23:47:25.157Z,-2.17
2023-02-25T23:50:12.069Z,-2.20
2023-02-25T23:52:57.930Z,-2.23
2023-02-25T23:55:43.608Z,-2.26
2023-02-25T23:58:29.428Z,-2.26
